BQO weather

Bouna Airport
Bouna, Zanzan, Côte d'Ivoire

Public forecast

Using degrees Celsius for public forecast. Weather courtesy of forecast.io.

METAR (pilot weather report)

Report is more than 6 hours old.

Closest report is Gaoua Airport, 66.9 nm (124.0 km) N. Retrieved 2009/09/21 17:00 UTC (10 years ago):

DFOG 211700Z 18004KT 9999 FEW020 FEW040CB NW NE BKN260 30/23

TAF (pilot weather forecast)

Closest forecast is Bobo Dioulasso Airport, 136.8 nm (253.4 km) NW. Retrieved 2019/05/23 12:21 UTC (35 minutes ago):

TAF DFOO 231100Z 2312/2412 20008KT 9999 SCT020 TEMPO 2314/2324 4000 TSRA SCT020 FEW033CB